createdAt,value
2019-01-27T00:01:54.609Z,3.30
2019-01-27T00:04:24.439Z,2.80
2019-01-27T00:06:54.259Z,3.10
2019-01-27T00:09:24.118Z,4.87
2019-01-27T00:11:53.967Z,4.43
2019-01-27T00:14:23.845Z,5.57
2019-01-27T00:16:53.681Z,3.87
2019-01-27T00:19:23.500Z,3.13
2019-01-27T00:21:53.514Z,3.50
2019-01-27T00:24:23.375Z,4.30
2019-01-27T00:26:53.211Z,6.50
2019-01-27T00:29:23.118Z,12.63
2019-01-27T00:31:53.005Z,5.50
2019-01-27T00:34:22.934Z,7.07
2019-01-27T00:36:52.828Z,10.00
2019-01-27T00:39:22.698Z,10.47
2019-01-27T00:41:52.569Z,9.40
2019-01-27T00:44:22.427Z,7.17
2019-01-27T00:46:52.456Z,7.00
2019-01-27T00:49:22.250Z,8.60
2019-01-27T00:51:52.099Z,4.03
2019-01-27T00:54:21.977Z,7.70
2019-01-27T00:56:51.921Z,8.47
2019-01-27T00:59:21.794Z,8.53
2019-01-27T01:01:52.277Z,5.90
2019-01-27T01:04:22.133Z,6.40
2019-01-27T01:06:52.014Z,6.80
2019-01-27T01:09:22.153Z,5.90
2019-01-27T01:11:53.376Z,7.50
2019-01-27T01:14:23.282Z,7.57
2019-01-27T01:16:53.097Z,7.17
2019-01-27T01:19:22.930Z,7.13
2019-01-27T01:21:52.727Z,6.87
2019-01-27T01:24:23.748Z,8.97
2019-01-27T01:26:54.486Z,7.00
2019-01-27T01:29:24.363Z,8.00
2019-01-27T01:31:54.253Z,6.03
2019-01-27T01:34:24.143Z,6.30
2019-01-27T01:36:54.028Z,7.93
2019-01-27T01:39:23.878Z,7.20
2019-01-27T01:41:53.717Z,8.17
2019-01-27T01:44:23.641Z,6.40
2019-01-27T01:46:53.478Z,11.83
2019-01-27T01:49:23.360Z,3.93
2019-01-27T01:51:53.239Z,5.20
2019-01-27T01:54:23.019Z,2.23
2019-01-27T01:56:52.843Z,2.80
2019-01-27T01:59:22.747Z,4.87
2019-01-27T02:01:52.572Z,4.70
2019-01-27T02:04:22.400Z,6.30
2019-01-27T02:06:52.212Z,9.30
2019-01-27T02:09:22.012Z,8.63
2019-01-27T02:11:51.844Z,6.97
2019-01-27T02:14:21.640Z,4.70
2019-01-27T02:16:51.489Z,5.60
2019-01-27T02:19:21.294Z,4.23
2019-01-27T02:21:51.155Z,4.10
2019-01-27T02:24:20.978Z,4.47
2019-01-27T02:26:50.805Z,3.57
2019-01-27T02:29:22.376Z,2.60
2019-01-27T02:31:52.121Z,3.30
2019-01-27T02:34:21.969Z,4.77
2019-01-27T02:36:51.810Z,4.23
2019-01-27T02:39:21.650Z,7.27
2019-01-27T02:41:51.585Z,6.10
2019-01-27T02:44:21.427Z,4.90
2019-01-27T02:46:51.244Z,8.87
2019-01-27T02:49:21.174Z,4.40
2019-01-27T02:51:50.993Z,5.00
2019-01-27T02:54:20.794Z,6.30
2019-01-27T02:56:50.624Z,3.60
2019-01-27T02:59:20.413Z,3.80
2019-01-27T03:01:50.295Z,3.70
2019-01-27T03:04:20.113Z,4.50
2019-01-27T03:07:07.090Z,5.30
2019-01-27T03:09:40.413Z,5.40
2019-01-27T03:12:10.466Z,8.47
2019-01-27T03:14:40.277Z,6.40
2019-01-27T03:17:12.062Z,7.43
2019-01-27T03:19:41.865Z,5.80
2019-01-27T03:22:11.700Z,7.87
2019-01-27T03:24:41.550Z,5.77
2019-01-27T03:27:11.342Z,5.77
2019-01-27T03:29:41.254Z,8.73
2019-01-27T03:32:11.070Z,13.43
2019-01-27T03:34:40.874Z,10.97
2019-01-27T03:37:10.746Z,14.23
2019-01-27T03:39:40.563Z,9.50
2019-01-27T03:42:10.436Z,9.07
2019-01-27T03:44:40.312Z,10.40
2019-01-27T03:47:10.169Z,10.73
2019-01-27T03:49:39.999Z,13.00
2019-01-27T03:52:10.072Z,11.23
2019-01-27T03:54:39.890Z,6.87
2019-01-27T03:57:09.737Z,9.47
2019-01-27T03:59:39.716Z,11.70
2019-01-27T04:02:09.545Z,8.47
2019-01-27T04:04:39.530Z,8.90
2019-01-27T04:07:09.513Z,8.53
2019-01-27T04:09:39.390Z,9.07
2019-01-27T04:12:09.185Z,7.23
2019-01-27T04:14:39.080Z,7.47
2019-01-27T04:17:08.918Z,8.23
2019-01-27T04:19:38.750Z,5.73
2019-01-27T04:22:08.732Z,5.80
2019-01-27T04:24:38.547Z,6.33
2019-01-27T04:27:08.405Z,5.20
2019-01-27T04:29:38.260Z,8.37
2019-01-27T04:32:08.114Z,3.93
2019-01-27T04:34:37.929Z,5.70
2019-01-27T04:37:07.921Z,5.17
2019-01-27T04:39:37.791Z,8.33
2019-01-27T04:42:07.637Z,4.27
2019-01-27T04:44:37.490Z,3.70
2019-01-27T04:47:07.506Z,4.23
2019-01-27T04:49:37.390Z,3.53
2019-01-27T04:52:07.395Z,2.97
2019-01-27T04:54:37.240Z,3.03
2019-01-27T04:57:07.315Z,3.60
2019-01-27T04:59:37.230Z,2.77
2019-01-27T05:02:07.327Z,5.33
2019-01-27T05:04:39.385Z,4.47
2019-01-27T05:07:09.283Z,2.47
2019-01-27T05:09:39.114Z,4.30
2019-01-27T05:12:09.064Z,4.87
2019-01-27T05:14:38.859Z,4.57
2019-01-27T05:17:08.718Z,4.10
2019-01-27T05:19:38.539Z,5.67
2019-01-27T05:22:08.515Z,5.67
2019-01-27T05:24:38.357Z,3.90
2019-01-27T05:27:08.208Z,6.13
2019-01-27T05:29:38.028Z,4.77
2019-01-27T05:32:07.866Z,6.83
2019-01-27T05:34:37.662Z,5.00
2019-01-27T05:37:07.522Z,6.07
2019-01-27T05:39:37.364Z,3.83
2019-01-27T05:42:07.185Z,8.97
2019-01-27T05:44:37.051Z,11.80
2019-01-27T05:47:06.867Z,8.63
2019-01-27T05:49:36.703Z,7.60
2019-01-27T05:52:06.524Z,8.90
2019-01-27T05:54:36.348Z,4.23
2019-01-27T05:57:06.244Z,5.77
2019-01-27T05:59:36.067Z,4.47
2019-01-27T06:02:05.990Z,6.37
2019-01-27T06:04:35.816Z,7.53
2019-01-27T06:07:05.796Z,4.73
2019-01-27T06:09:35.751Z,4.80
2019-01-27T06:12:05.703Z,6.00
2019-01-27T06:14:35.589Z,9.40
2019-01-27T06:17:05.412Z,3.93
2019-01-27T06:19:35.259Z,4.90
2019-01-27T06:22:05.286Z,3.40
2019-01-27T06:24:35.125Z,4.00
2019-01-27T06:27:05.017Z,4.70
2019-01-27T06:29:34.882Z,4.07
2019-01-27T06:32:04.674Z,6.13
2019-01-27T06:34:34.496Z,5.60
2019-01-27T06:37:04.376Z,7.17
2019-01-27T06:39:34.224Z,4.90
2019-01-27T06:42:04.031Z,4.60
2019-01-27T06:44:33.867Z,8.47
2019-01-27T06:47:03.710Z,4.97
2019-01-27T06:49:33.538Z,4.47
2019-01-27T06:52:03.336Z,4.37
2019-01-27T06:54:33.180Z,5.67
2019-01-27T06:57:02.974Z,3.87
2019-01-27T06:59:54.490Z,3.67
2019-01-27T07:02:34.849Z,3.40
2019-01-27T07:05:27.634Z,2.40
2019-01-27T07:08:12.323Z,3.80
2019-01-27T07:11:04.099Z,3.47
2019-01-27T07:13:51.492Z,4.63
2019-01-27T07:16:43.173Z,4.67
2019-01-27T07:19:41.115Z,5.37
2019-01-27T07:22:28.359Z,3.27
2019-01-27T07:25:24.892Z,5.03
2019-01-27T07:28:31.857Z,2.00
2019-01-27T07:31:32.456Z,3.53
2019-01-27T07:34:19.831Z,4.20
2019-01-27T07:37:14.573Z,2.70
2019-01-27T07:40:07.040Z,1.87
2019-01-27T07:43:11.192Z,2.33
2019-01-27T07:45:48.640Z,1.57
2019-01-27T07:48:46.673Z,3.70
2019-01-27T07:51:29.017Z,2.90
2019-01-27T07:54:29.907Z,5.33
2019-01-27T07:57:18.586Z,7.70
2019-01-27T08:00:06.145Z,3.23
2019-01-27T08:02:53.472Z,1.70
2019-01-27T08:05:42.326Z,2.60
2019-01-27T08:08:32.738Z,1.90
2019-01-27T08:11:20.555Z,2.00
2019-01-27T08:14:00.692Z,4.83
2019-01-27T08:16:55.777Z,1.87
2019-01-27T08:19:35.046Z,1.67
2019-01-27T08:22:29.838Z,1.93
2019-01-27T08:25:21.331Z,3.10
2019-01-27T08:28:11.483Z,1.90
2019-01-27T08:31:00.247Z,1.80
2019-01-27T08:33:51.884Z,5.23
2019-01-27T08:36:49.547Z,6.07
2019-01-27T08:39:39.651Z,3.57
2019-01-27T08:42:37.181Z,3.80
2019-01-27T08:45:27.696Z,3.97
2019-01-27T08:47:57.668Z,3.70
2019-01-27T08:50:27.449Z,9.17
2019-01-27T08:52:57.343Z,4.13
2019-01-27T08:55:27.188Z,2.10
2019-01-27T08:57:59.746Z,7.27
2019-01-27T09:00:36.517Z,2.70
2019-01-27T09:03:14.524Z,1.47
2019-01-27T09:06:04.774Z,3.93
2019-01-27T09:09:05.906Z,1.30
2019-01-27T09:12:03.448Z,3.20
2019-01-27T09:14:41.791Z,2.60
2019-01-27T09:17:33.939Z,4.50
2019-01-27T09:20:22.117Z,1.60
2019-01-27T09:23:20.080Z,2.83
2019-01-27T09:26:17.924Z,2.00
2019-01-27T09:29:18.728Z,2.97
2019-01-27T09:32:02.524Z,2.80
2019-01-27T09:34:47.315Z,2.10
2019-01-27T09:37:41.894Z,2.70
2019-01-27T09:40:34.689Z,1.50
2019-01-27T09:43:24.044Z,3.80
2019-01-27T09:46:11.801Z,2.10
2019-01-27T09:48:47.980Z,1.23
2019-01-27T09:51:45.802Z,1.90
2019-01-27T09:54:25.424Z,1.57
2019-01-27T09:57:08.450Z,2.40
2019-01-27T10:00:06.342Z,2.23
2019-01-27T10:02:57.856Z,2.60
2019-01-27T10:05:41.392Z,1.93
2019-01-27T10:08:32.830Z,6.47
2019-01-27T10:11:10.435Z,2.23
2019-01-27T10:14:00.701Z,2.00
2019-01-27T10:16:45.378Z,2.83
2019-01-27T10:19:52.370Z,4.27
2019-01-27T10:22:39.675Z,3.00
2019-01-27T10:25:28.594Z,4.70
2019-01-27T10:28:12.175Z,11.60
2019-01-27T10:31:09.829Z,3.07
2019-01-27T10:34:03.152Z,2.10
2019-01-27T10:36:57.855Z,2.97
2019-01-27T10:39:41.795Z,2.57
2019-01-27T10:42:17.389Z,5.13
2019-01-27T10:45:21.656Z,1.93
2019-01-27T10:48:20.414Z,1.57
2019-01-27T10:51:01.324Z,1.97
2019-01-27T10:53:37.138Z,6.57
2019-01-27T10:56:22.523Z,2.90
2019-01-27T10:59:14.185Z,2.13
2019-01-27T11:02:06.233Z,6.40
2019-01-27T11:04:55.138Z,2.53
2019-01-27T11:07:45.825Z,5.63
2019-01-27T11:10:32.175Z,3.60
2019-01-27T11:13:18.399Z,6.80
2019-01-27T11:15:59.305Z,1.27
2019-01-27T11:18:43.038Z,3.23
2019-01-27T11:21:40.799Z,2.83
2019-01-27T11:24:29.421Z,4.90
2019-01-27T11:27:24.204Z,13.73
2019-01-27T11:30:13.553Z,3.70
2019-01-27T11:33:02.561Z,4.50
2019-01-27T11:35:46.762Z,2.43
2019-01-27T11:38:38.352Z,3.03
2019-01-27T11:41:31.125Z,4.47
2019-01-27T11:44:21.595Z,3.67
2019-01-27T11:47:16.610Z,2.80
2019-01-27T11:49:51.506Z,3.47
2019-01-27T11:52:29.448Z,3.73
2019-01-27T11:54:59.541Z,5.10
2019-01-27T11:57:29.414Z,4.50
2019-01-27T11:59:59.705Z,4.03
2019-01-27T12:02:29.641Z,6.20
2019-01-27T12:04:59.510Z,5.23
2019-01-27T12:07:32.103Z,6.00
2019-01-27T12:10:02.104Z,6.10
2019-01-27T12:12:35.070Z,5.63
2019-01-27T12:15:05.920Z,3.17
2019-01-27T12:17:36.002Z,5.53
2019-01-27T12:20:11.015Z,5.00
2019-01-27T12:22:40.934Z,5.00
2019-01-27T12:25:15.219Z,3.80
2019-01-27T12:27:45.337Z,5.10
2019-01-27T12:30:17.550Z,5.33
2019-01-27T12:32:47.606Z,3.03
2019-01-27T12:35:17.553Z,7.70
2019-01-27T12:37:47.402Z,3.73
2019-01-27T12:40:19.534Z,3.07
2019-01-27T12:42:49.386Z,6.90
2019-01-27T12:45:19.769Z,3.83
2019-01-27T12:47:49.588Z,4.90
2019-01-27T12:50:19.656Z,6.17
2019-01-27T12:52:50.737Z,6.17
2019-01-27T12:55:20.698Z,7.87
2019-01-27T12:57:51.763Z,10.77
2019-01-27T13:00:31.251Z,11.00
2019-01-27T13:03:01.248Z,5.73
2019-01-27T13:05:31.154Z,10.03
2019-01-27T13:08:01.052Z,6.93
2019-01-27T13:10:30.896Z,7.80
2019-01-27T13:13:00.845Z,7.20
2019-01-27T13:15:30.658Z,8.50
2019-01-27T13:18:02.645Z,8.53
2019-01-27T13:20:32.087Z,7.83
2019-01-27T13:23:01.946Z,9.73
2019-01-27T13:25:31.817Z,9.43
2019-01-27T13:28:03.005Z,6.97
2019-01-27T13:30:32.828Z,9.00
2019-01-27T13:33:03.402Z,7.17
2019-01-27T13:35:33.494Z,10.83
2019-01-27T13:38:03.369Z,8.73
2019-01-27T13:40:33.213Z,11.37
2019-01-27T13:43:03.906Z,9.20
2019-01-27T13:45:33.840Z,6.40
2019-01-27T13:48:03.710Z,6.43
2019-01-27T13:50:33.669Z,9.07
2019-01-27T13:53:03.600Z,7.40
2019-01-27T13:55:33.976Z,9.50
2019-01-27T13:58:05.934Z,6.50
2019-01-27T14:00:37.349Z,9.50
2019-01-27T14:03:07.407Z,7.80
2019-01-27T14:05:37.246Z,6.90
2019-01-27T14:08:07.317Z,10.37
2019-01-27T14:10:37.545Z,7.73
2019-01-27T14:13:07.444Z,7.43
2019-01-27T14:15:37.936Z,10.47
2019-01-27T14:18:10.421Z,9.77
2019-01-27T14:20:40.263Z,9.37
2019-01-27T14:23:10.123Z,8.83
2019-01-27T14:25:39.991Z,12.70
2019-01-27T14:28:09.806Z,6.63
2019-01-27T14:30:42.252Z,8.27
2019-01-27T14:33:12.109Z,10.00
2019-01-27T14:35:41.947Z,11.40
2019-01-27T14:38:17.448Z,8.60
2019-01-27T14:40:47.779Z,10.17
2019-01-27T14:43:17.636Z,10.00
2019-01-27T14:45:47.607Z,15.33
2019-01-27T14:48:18.052Z,10.30
2019-01-27T14:50:49.394Z,14.07
2019-01-27T14:53:19.440Z,9.07
2019-01-27T14:55:49.261Z,7.60
2019-01-27T14:58:19.129Z,6.20
2019-01-27T15:00:49.083Z,7.50
2019-01-27T15:03:19.058Z,7.07
2019-01-27T15:05:48.990Z,6.00
2019-01-27T15:08:18.878Z,5.80
2019-01-27T15:10:48.944Z,3.83
2019-01-27T15:13:18.956Z,2.70
2019-01-27T15:15:48.872Z,3.10
2019-01-27T15:18:19.830Z,3.63
2019-01-27T15:20:56.634Z,3.40
2019-01-27T15:23:26.480Z,2.93
2019-01-27T15:25:56.337Z,2.03
2019-01-27T15:28:26.421Z,2.03
2019-01-27T15:30:58.322Z,2.63
2019-01-27T15:33:28.267Z,2.43
2019-01-27T15:35:58.215Z,4.60
2019-01-27T15:38:41.459Z,4.10
2019-01-27T15:41:11.336Z,4.20
2019-01-27T15:43:41.137Z,3.53
2019-01-27T15:46:10.939Z,3.13
2019-01-27T15:48:40.778Z,3.57
2019-01-27T15:51:10.626Z,3.17
2019-01-27T15:53:40.511Z,4.13
2019-01-27T15:56:10.429Z,7.50
2019-01-27T15:58:40.274Z,8.17
2019-01-27T16:01:10.200Z,4.77
2019-01-27T16:03:40.039Z,5.80
2019-01-27T16:06:09.927Z,6.73
2019-01-27T16:08:39.798Z,3.27
2019-01-27T16:11:09.646Z,7.53
2019-01-27T16:13:39.640Z,6.53
2019-01-27T16:16:09.657Z,5.63
2019-01-27T16:18:39.635Z,9.97
2019-01-27T16:21:09.488Z,4.63
2019-01-27T16:23:51.057Z,5.77
2019-01-27T16:26:20.900Z,10.17
2019-01-27T16:28:50.803Z,9.00
2019-01-27T16:31:54.628Z,7.53
2019-01-27T16:34:35.358Z,10.40
2019-01-27T16:37:05.545Z,6.60
2019-01-27T16:39:35.403Z,5.07
2019-01-27T16:42:05.367Z,6.77
2019-01-27T16:44:35.304Z,10.63
2019-01-27T16:47:05.256Z,10.60
2019-01-27T16:49:35.129Z,14.60
2019-01-27T16:52:05.401Z,10.30
2019-01-27T16:54:35.316Z,10.23
2019-01-27T16:57:05.219Z,14.80
2019-01-27T16:59:35.424Z,9.97
2019-01-27T17:02:05.314Z,14.20
2019-01-27T17:04:35.330Z,14.90
2019-01-27T17:07:05.284Z,11.40
2019-01-27T17:09:35.292Z,8.67
2019-01-27T17:12:05.332Z,15.93
2019-01-27T17:14:35.402Z,9.87
2019-01-27T17:17:05.404Z,9.87
2019-01-27T17:19:35.294Z,8.13
2019-01-27T17:22:05.273Z,10.33
2019-01-27T17:24:35.139Z,10.10
2019-01-27T17:27:05.151Z,25.83
2019-01-27T17:29:35.011Z,9.00
2019-01-27T17:32:04.955Z,9.67
2019-01-27T17:34:34.904Z,21.07
2019-01-27T17:37:04.924Z,9.80
2019-01-27T17:39:35.675Z,11.53
2019-01-27T17:42:05.779Z,11.83
2019-01-27T17:44:35.612Z,8.50
2019-01-27T17:47:05.504Z,18.87
2019-01-27T17:49:35.425Z,11.43
2019-01-27T17:52:05.284Z,12.87
2019-01-27T17:54:35.172Z,13.23
2019-01-27T17:57:18.111Z,10.47
2019-01-27T17:59:54.672Z,9.33
2019-01-27T18:02:45.419Z,10.13
2019-01-27T18:05:49.418Z,10.93
2019-01-27T18:08:34.077Z,13.97
2019-01-27T18:11:20.608Z,13.67
2019-01-27T18:14:18.755Z,11.17
2019-01-27T18:16:48.600Z,6.47
2019-01-27T18:19:18.452Z,7.40
2019-01-27T18:21:48.300Z,11.00
2019-01-27T18:24:18.093Z,16.10
2019-01-27T18:26:47.900Z,14.10
2019-01-27T18:29:17.809Z,8.03
2019-01-27T18:31:47.677Z,9.93
2019-01-27T18:34:17.636Z,8.50
2019-01-27T18:36:47.679Z,6.50
2019-01-27T18:39:17.758Z,11.27
2019-01-27T18:41:47.685Z,9.00
2019-01-27T18:44:17.578Z,7.70
2019-01-27T18:46:47.708Z,9.57
2019-01-27T18:49:17.539Z,10.20
2019-01-27T18:51:47.376Z,8.67
2019-01-27T18:54:34.966Z,17.93
2019-01-27T18:57:18.927Z,12.50
2019-01-27T18:59:58.548Z,14.73
2019-01-27T19:02:50.330Z,13.03
2019-01-27T19:05:32.121Z,5.80
2019-01-27T19:08:19.625Z,5.03
2019-01-27T19:11:00.607Z,11.20
2019-01-27T19:14:04.418Z,7.67
2019-01-27T19:16:51.910Z,7.10
2019-01-27T19:19:44.198Z,12.53
2019-01-27T19:22:35.707Z,14.50
2019-01-27T19:25:24.380Z,13.03
2019-01-27T19:28:17.355Z,9.50
2019-01-27T19:31:18.130Z,10.33
2019-01-27T19:34:09.013Z,8.73
2019-01-27T19:37:00.953Z,10.50
2019-01-27T19:39:44.884Z,12.07
2019-01-27T19:42:36.809Z,12.63
2019-01-27T19:45:18.303Z,11.03
2019-01-27T19:48:07.025Z,9.67
2019-01-27T19:50:55.762Z,10.07
2019-01-27T19:53:42.208Z,11.90
2019-01-27T19:56:24.266Z,7.40
2019-01-27T19:59:16.048Z,18.83
2019-01-27T20:02:13.661Z,11.03
2019-01-27T20:05:05.165Z,16.20
2019-01-27T20:07:56.958Z,11.00
2019-01-27T20:10:44.251Z,15.50
2019-01-27T20:13:23.164Z,16.67
2019-01-27T20:16:13.482Z,17.00
2019-01-27T20:19:00.791Z,9.00
2019-01-27T20:21:58.343Z,9.43
2019-01-27T20:25:22.716Z,12.60
2019-01-27T20:28:17.686Z,8.13
2019-01-27T20:31:12.807Z,10.90
2019-01-27T20:33:59.037Z,8.27
2019-01-27T20:36:43.035Z,12.87
2019-01-27T20:39:23.536Z,22.17
2019-01-27T20:42:02.273Z,15.70
2019-01-27T20:44:40.480Z,19.27
2019-01-27T20:47:47.749Z,13.83
2019-01-27T20:50:35.448Z,17.73
2019-01-27T20:53:30.323Z,18.50
2019-01-27T20:56:16.086Z,11.90
2019-01-27T20:59:06.406Z,15.73
2019-01-27T21:02:03.099Z,8.07
2019-01-27T21:04:56.527Z,10.50
2019-01-27T21:07:34.739Z,8.83
2019-01-27T21:10:17.684Z,8.80
2019-01-27T21:13:06.410Z,13.23
2019-01-27T21:15:44.367Z,12.27
2019-01-27T21:18:42.114Z,18.70
2019-01-27T21:21:11.968Z,11.67
2019-01-27T21:23:41.796Z,13.00
2019-01-27T21:26:11.662Z,12.73
2019-01-27T21:28:41.537Z,12.40
2019-01-27T21:31:11.705Z,16.80
2019-01-27T21:33:41.619Z,10.17
2019-01-27T21:36:11.490Z,18.87
2019-01-27T21:38:41.454Z,16.03
2019-01-27T21:41:11.315Z,9.23
2019-01-27T21:43:43.594Z,13.43
2019-01-27T21:46:42.176Z,12.80
2019-01-27T21:49:21.494Z,12.17
2019-01-27T21:52:04.863Z,13.63
2019-01-27T21:54:58.876Z,23.03
2019-01-27T22:00:33.645Z,17.37
2019-01-27T22:03:03.478Z,17.03
2019-01-27T22:05:35.704Z,21.83
2019-01-27T22:08:19.776Z,16.47
2019-01-27T22:11:08.495Z,14.73
2019-01-27T22:13:52.609Z,16.10
2019-01-27T22:16:28.820Z,18.83
2019-01-27T22:19:11.298Z,18.63
2019-01-27T22:21:53.355Z,13.23
2019-01-27T22:24:29.485Z,24.13
2019-01-27T22:27:10.142Z,16.23
2019-01-27T22:29:45.749Z,15.97
2019-01-27T22:32:17.154Z,15.23
2019-01-27T22:34:49.271Z,14.83
2019-01-27T22:37:21.391Z,18.70
2019-01-27T22:39:53.842Z,14.23
2019-01-27T22:42:26.375Z,10.60
2019-01-27T22:44:58.866Z,12.97
2019-01-27T22:47:29.974Z,10.40
2019-01-27T22:50:01.679Z,14.90
2019-01-27T22:52:34.262Z,13.80
2019-01-27T22:55:06.772Z,15.07
2019-01-27T22:57:39.594Z,12.70
2019-01-27T23:01:01.257Z,12.80
2019-01-27T23:03:41.070Z,14.70
2019-01-27T23:06:13.246Z,13.97
2019-01-27T23:08:46.287Z,13.03
2019-01-27T23:11:18.106Z,13.20
2019-01-27T23:14:02.360Z,13.93
2019-01-27T23:16:36.984Z,15.13
2019-01-27T23:19:17.182Z,13.20
2019-01-27T23:21:48.590Z,17.20
2019-01-27T23:24:19.829Z,11.00
2019-01-27T23:26:51.131Z,18.17
2019-01-27T23:29:22.365Z,15.57
2019-01-27T23:31:53.715Z,11.60
2019-01-27T23:34:24.925Z,9.20
2019-01-27T23:36:56.200Z,13.07
2019-01-27T23:39:27.407Z,11.13
2019-01-27T23:41:58.708Z,15.43
2019-01-27T23:44:29.971Z,13.10
2019-01-27T23:47:01.333Z,13.33
2019-01-27T23:49:32.650Z,11.30
2019-01-27T23:52:03.870Z,12.70
2019-01-27T23:54:35.151Z,14.83
2019-01-27T23:57:06.496Z,13.20
2019-01-27T23:59:37.757Z,14.47
